Time;durP1;ratioP1;P1;durP2;ratioP2;P2;SDS_P1;SDS_P2;PMS_P1;PMS_P2;Temp;Humidity;BMP_temperature;BMP_pressure;BME280_temperature;BME280_humidity;BME280_pressure;Samples;Min_cycle;Max_cycle;Signal;HPM_P1;HPM_P2
2023/06/16 00:01:08;;;;;;;;;;;;;;;17.97;33.44;100599.34;4960833;27;98343;-66
2023/06/16 00:03:34;;;;;;;;;;;;;;;17.96;33.51;100586.84;4970387;27;98193;-66
2023/06/16 00:06:03;;;;;;;;;;;;;;;17.94;33.41;100583.63;4976815;27;98609;-66
2023/06/16 00:08:33;;;;;;;;;;;;;;;17.93;33.32;100584.75;4982876;27;98077;-74
2023/06/16 00:10:59;;;;;;;;;;;;;;;17.93;33.34;100586.66;4965461;27;98226;-74
2023/06/16 00:13:26;;;;;;;;;;;;;;;17.91;33.47;100590.50;4967384;27;98221;-74
2023/06/16 00:15:53;;;;;;;;;;;;;;;17.91;33.42;100584.25;4961551;27;98171;-74
2023/06/16 00:18:20;;;;;;;;;;;;;;;17.88;33.40;100582.97;4968122;27;98032;-66
2023/06/16 00:20:51;;;;;;;;;;;;;;;17.86;33.58;100589.84;4975804;27;98212;-73
2023/06/16 00:23:20;;;;;;;;;;;;;;;17.81;33.71;100584.53;4966746;27;98041;-68
2023/06/16 00:25:48;;;;;;;;;;;;;;;17.76;33.58;100585.44;4984889;27;98399;-73
2023/06/16 00:28:15;;;;;;;;;;;;;;;17.71;33.63;100585.56;4961121;27;98151;-65
2023/06/16 00:30:41;;;;;;;;;;;;;;;17.65;33.60;100582.16;4981241;27;98405;-65
2023/06/16 00:33:10;;;;;;;;;;;;;;;17.59;33.57;100588.84;4972505;27;98421;-66
2023/06/16 00:35:37;;;;;;;;;;;;;;;17.55;33.62;100581.59;4971359;27;99290;-74
2023/06/16 00:38:04;;;;;;;;;;;;;;;17.47;33.62;100582.34;4976025;27;98725;-73
2023/06/16 00:40:30;;;;;;;;;;;;;;;17.42;33.77;100584.09;4983115;27;98286;-65
2023/06/16 00:42:58;;;;;;;;;;;;;;;17.37;33.70;100577.94;4972356;27;98569;-66
2023/06/16 00:45:24;;;;;;;;;;;;;;;17.30;33.66;100583.84;4976212;27;98648;-65
2023/06/16 00:47:51;;;;;;;;;;;;;;;17.23;33.59;100579.94;4979870;27;100982;-65
2023/06/16 00:50:18;;;;;;;;;;;;;;;17.16;33.80;100581.16;4969890;27;98159;-74
2023/06/16 00:52:45;;;;;;;;;;;;;;;17.08;33.88;100572.94;4968789;27;97938;-65
2023/06/16 00:55:12;;;;;;;;;;;;;;;17.01;33.77;100578.00;4974889;27;98173;-73
2023/06/16 00:57:39;;;;;;;;;;;;;;;16.95;33.84;100571.88;4980352;27;98334;-74
2023/06/16 01:00:07;;;;;;;;;;;;;;;16.91;33.72;100571.69;4977376;27;98059;-74
2023/06/16 01:02:34;;;;;;;;;;;;;;;16.89;33.81;100568.44;4964168;27;98702;-66
2023/06/16 01:05:02;;;;;;;;;;;;;;;16.87;33.87;100570.69;4967518;27;98753;-73
2023/06/16 01:07:42;;;;;;;;;;;;;;;16.86;33.83;100571.81;4969112;27;98021;-73
2023/06/16 01:10:24;;;;;;;;;;;;;;;16.86;33.90;100573.72;4972585;27;97906;-66
2023/06/16 01:13:03;;;;;;;;;;;;;;;16.87;33.72;100565.25;4971618;27;98098;-73
2023/06/16 01:15:29;;;;;;;;;;;;;;;16.86;33.72;100562.84;4982951;27;99474;-73
2023/06/16 01:17:59;;;;;;;;;;;;;;;16.83;33.94;100560.72;4959221;27;99748;-68
2023/06/16 01:20:28;;;;;;;;;;;;;;;16.77;33.75;100560.00;4966446;27;98301;-65
2023/06/16 01:23:17;;;;;;;;;;;;;;;16.73;33.83;100563.63;5014156;27;98477;-74
2023/06/16 01:25:44;;;;;;;;;;;;;;;16.66;33.89;100567.59;4984285;27;98393;-74
2023/06/16 01:28:11;;;;;;;;;;;;;;;16.63;33.85;100572.84;4977191;27;99558;-73
2023/06/16 01:30:42;;;;;;;;;;;;;;;16.61;34.01;100570.41;4967938;27;98297;-65
2023/06/16 01:33:08;;;;;;;;;;;;;;;16.61;33.79;100572.31;4987125;27;98377;-74
2023/06/16 01:35:34;;;;;;;;;;;;;;;16.62;33.96;100573.91;4968433;27;98413;-65
2023/06/16 01:38:01;;;;;;;;;;;;;;;16.63;33.78;100578.28;4972917;27;98235;-74
2023/06/16 01:40:27;;;;;;;;;;;;;;;16.61;33.97;100567.69;4984515;27;98030;-65
2023/06/16 01:42:54;;;;;;;;;;;;;;;16.62;33.71;100572.03;4970197;27;98719;-74
2023/06/16 01:45:21;;;;;;;;;;;;;;;16.63;33.71;100570.13;4971181;27;99849;-65
2023/06/16 01:47:47;;;;;;;;;;;;;;;16.64;33.81;100569.78;4971274;27;97890;-65
2023/06/16 01:50:14;;;;;;;;;;;;;;;16.65;33.86;100570.59;4984579;27;99369;-73
2023/06/16 01:52:42;;;;;;;;;;;;;;;16.64;33.92;100566.28;4969962;27;98450;-73
2023/06/16 01:55:08;;;;;;;;;;;;;;;16.63;33.78;100565.47;4970133;27;98578;-65
2023/06/16 01:57:35;;;;;;;;;;;;;;;16.58;33.99;100556.59;4970981;27;98831;-65
2023/06/16 02:00:11;;;;;;;;;;;;;;;16.54;33.79;100552.88;4966222;27;98227;-73
2023/06/16 02:02:38;;;;;;;;;;;;;;;16.50;34.00;100560.03;5000394;27;98246;-66
2023/06/16 02:05:04;;;;;;;;;;;;;;;16.46;33.86;100562.56;4978232;27;101630;-65
2023/06/16 02:07:33;;;;;;;;;;;;;;;16.41;33.92;100558.03;4980684;27;97931;-74
2023/06/16 02:10:01;;;;;;;;;;;;;;;16.38;34.01;100549.66;4965282;27;97884;-65
2023/06/16 02:12:27;;;;;;;;;;;;;;;16.35;33.92;100556.53;4961194;27;99982;-65
2023/06/16 02:14:54;;;;;;;;;;;;;;;16.34;33.92;100559.56;4958130;27;98576;-74
2023/06/16 02:17:26;;;;;;;;;;;;;;;16.33;33.85;100556.03;4961731;27;99485;-65
2023/06/16 02:19:54;;;;;;;;;;;;;;;16.35;34.18;100563.91;4984172;27;98360;-74
2023/06/16 02:22:21;;;;;;;;;;;;;;;16.36;33.82;100563.59;4979359;27;98059;-65
2023/06/16 02:24:47;;;;;;;;;;;;;;;16.37;33.92;100561.66;4962198;27;98429;-65
2023/06/16 02:27:14;;;;;;;;;;;;;;;16.37;34.10;100557.03;4966827;27;98000;-74
2023/06/16 02:29:41;;;;;;;;;;;;;;;16.37;34.10;100559.75;4981823;27;98075;-74
2023/06/16 02:32:08;;;;;;;;;;;;;;;16.36;33.97;100552.72;4964116;27;98054;-65
2023/06/16 02:34:34;;;;;;;;;;;;;;;16.32;33.89;100549.00;4958114;27;99288;-65
2023/06/16 02:37:01;;;;;;;;;;;;;;;16.28;33.95;100558.84;4965851;27;98263;-74
2023/06/16 02:39:28;;;;;;;;;;;;;;;16.25;34.09;100555.94;4964016;27;98164;-65
2023/06/16 02:41:55;;;;;;;;;;;;;;;16.24;34.07;100557.84;4960894;27;98333;-73
2023/06/16 02:44:21;;;;;;;;;;;;;;;16.22;34.13;100557.34;4976692;27;100676;-74
2023/06/16 02:46:47;;;;;;;;;;;;;;;16.20;34.11;100554.13;4973479;27;99332;-65
2023/06/16 02:49:16;;;;;;;;;;;;;;;16.17;33.98;100555.53;4965875;27;98044;-66
2023/06/16 02:51:42;;;;;;;;;;;;;;;16.16;34.00;100551.22;4997842;27;97927;-66
2023/06/16 02:54:09;;;;;;;;;;;;;;;16.12;34.10;100560.28;4963263;27;98144;-65
2023/06/16 02:56:35;;;;;;;;;;;;;;;16.02;33.94;100552.31;4962913;27;98225;-65
2023/06/16 02:59:01;;;;;;;;;;;;;;;15.93;34.02;100554.94;4959756;27;97924;-66
2023/06/16 03:01:28;;;;;;;;;;;;;;;15.85;34.22;100555.63;4973961;27;97894;-74
2023/06/16 03:06:36;;;;;;;;;;;;;;;15.70;34.34;100546.63;5000524;27;97964;-74
2023/06/16 03:09:06;;;;;;;;;;;;;;;15.65;34.09;100548.66;4998683;27;98022;-64
2023/06/16 03:11:33;;;;;;;;;;;;;;;15.60;34.18;100549.53;4965755;27;98079;-73
2023/06/16 03:13:59;;;;;;;;;;;;;;;15.53;34.28;100554.53;4984946;27;98289;-64
2023/06/16 03:16:27;;;;;;;;;;;;;;;15.51;34.50;100559.44;4995890;27;98882;-64
2023/06/16 03:18:54;;;;;;;;;;;;;;;15.50;34.07;100554.31;4970530;27;98490;-65
2023/06/16 03:21:21;;;;;;;;;;;;;;;15.49;34.46;100550.00;4979589;27;99494;-64
2023/06/16 03:23:50;;;;;;;;;;;;;;;15.49;34.36;100550.00;4971065;27;98063;-65
2023/06/16 03:26:17;;;;;;;;;;;;;;;15.49;34.44;100556.22;4978586;27;98465;-64
2023/06/16 03:28:45;;;;;;;;;;;;;;;15.49;34.19;100550.78;4983029;27;98097;-65
2023/06/16 03:31:12;;;;;;;;;;;;;;;15.50;34.26;100549.69;4981387;27;99024;-65
2023/06/16 03:33:38;;;;;;;;;;;;;;;15.51;34.31;100547.78;4967601;27;101444;-64
2023/06/16 03:36:05;;;;;;;;;;;;;;;15.50;34.42;100549.69;4981599;27;99112;-73
2023/06/16 03:38:31;;;;;;;;;;;;;;;15.50;34.25;100551.59;4967816;27;98344;-74
2023/06/16 03:40:58;;;;;;;;;;;;;;;15.50;34.36;100543.44;4982233;27;98468;-74
2023/06/16 03:43:24;;;;;;;;;;;;;;;15.49;34.21;100556.22;4984552;27;98363;-65
2023/06/16 03:45:50;;;;;;;;;;;;;;;15.45;33.88;100556.00;4970419;27;98101;-75
2023/06/16 03:48:16;;;;;;;;;;;;;;;15.44;33.97;100562.56;4965325;27;99335;-74
2023/06/16 03:50:43;;;;;;;;;;;;;;;15.46;34.23;100562.25;4968967;27;99539;-75
2023/06/16 03:53:10;;;;;;;;;;;;;;;15.49;34.30;100561.66;4965417;27;97961;-66
2023/06/16 03:55:36;;;;;;;;;;;;;;;15.50;34.25;100562.47;4967861;27;98309;-75
2023/06/16 03:58:02;;;;;;;;;;;;;;;15.47;34.27;100561.94;4965904;27;98153;-75
2023/06/16 04:00:34;;;;;;;;;;;;;;;15.44;34.06;100568.00;4948311;27;98270;-74
2023/06/16 04:03:02;;;;;;;;;;;;;;;15.41;33.99;100565.88;4974656;27;99369;-65
2023/06/16 04:05:29;;;;;;;;;;;;;;;15.42;33.99;100566.66;4957959;28;98068;-66
2023/06/16 04:07:55;;;;;;;;;;;;;;;15.40;34.09;100561.50;4944106;28;100300;-65
2023/06/16 04:10:21;;;;;;;;;;;;;;;15.39;34.33;100562.63;4937518;27;100158;-65
2023/06/16 04:12:48;;;;;;;;;;;;;;;15.38;34.06;100563.72;4964734;27;100188;-74
2023/06/16 04:15:15;;;;;;;;;;;;;;;15.36;34.33;100563.22;4947912;27;98725;-74
2023/06/16 04:17:41;;;;;;;;;;;;;;;15.34;34.21;100562.72;4945962;27;99597;-65
2023/06/16 04:20:11;;;;;;;;;;;;;;;15.33;34.08;100557.59;4929874;28;100534;-74
2023/06/16 04:22:37;;;;;;;;;;;;;;;15.33;34.08;100563.03;4951190;27;98325;-74
2023/06/16 04:25:05;;;;;;;;;;;;;;;15.33;34.34;100563.81;4927542;28;99060;-75
2023/06/16 04:27:33;;;;;;;;;;;;;;;15.33;34.22;100549.44;4949962;28;98762;-66
2023/06/16 04:30:05;;;;;;;;;;;;;;;15.34;34.34;100554.56;4935602;28;98527;-67
2023/06/16 04:32:35;;;;;;;;;;;;;;;15.34;34.10;100553.75;4965674;28;99357;-75
2023/06/16 04:35:06;;;;;;;;;;;;;;;15.35;34.41;100552.66;4957072;28;98141;-65
2023/06/16 04:37:33;;;;;;;;;;;;;;;15.35;34.28;100556.16;4927926;28;98128;-65
2023/06/16 04:39:59;;;;;;;;;;;;;;;15.39;34.39;100568.06;4928593;28;98207;-66
2023/06/16 04:42:25;;;;;;;;;;;;;;;15.44;34.43;100559.84;4926508;28;98465;-65
2023/06/16 04:44:52;;;;;;;;;;;;;;;15.55;34.09;100557.72;4893036;27;104023;-74
2023/06/16 04:47:18;;;;;;;;;;;;;;;15.65;34.31;100551.38;4924508;27;99907;-66
2023/06/16 04:49:45;;;;;;;;;;;;;;;15.72;34.36;100551.78;4953922;28;99955;-65
2023/06/16 04:52:12;;;;;;;;;;;;;;;15.79;34.07;100546.75;4939858;28;99765;-65
2023/06/16 04:54:38;;;;;;;;;;;;;;;15.81;34.01;100544.53;4921478;27;99339;-74
2023/06/16 04:57:05;;;;;;;;;;;;;;;15.81;33.90;100541.03;4931760;28;98250;-65
2023/06/16 04:59:32;;;;;;;;;;;;;;;15.85;34.28;100533.88;4942676;28;98451;-75
2023/06/16 05:01:58;;;;;;;;;;;;;;;15.85;34.33;100533.88;4961096;27;98417;-74
2023/06/16 05:04:24;;;;;;;;;;;;;;;15.94;34.29;100524.72;4918832;27;98660;-74
2023/06/16 05:06:51;;;;;;;;;;;;;;;16.09;34.02;100520.88;4893679;28;98710;-65
2023/06/16 05:09:18;;;;;;;;;;;;;;;16.19;33.85;100526.13;4930283;27;100300;-65
2023/06/16 05:11:45;;;;;;;;;;;;;;;16.39;33.82;100530.34;4950375;27;99339;-66
2023/06/16 05:14:12;;;;;;;;;;;;;;;16.58;33.85;100534.81;4931569;27;98544;-75
2023/06/16 05:16:38;;;;;;;;;;;;;;;16.81;33.61;100539.22;4932905;27;98283;-75
2023/06/16 05:19:05;;;;;;;;;;;;;;;17.02;33.45;100531.41;4958336;28;98165;-66
2023/06/16 05:21:31;;;;;;;;;;;;;;;17.24;33.31;100524.34;4963885;28;99689;-66
2023/06/16 05:23:57;;;;;;;;;;;;;;;17.48;33.39;100524.81;4933182;27;98348;-75
2023/06/16 05:26:24;;;;;;;;;;;;;;;17.87;33.25;100526.81;4947812;28;98242;-75
2023/06/16 05:28:50;;;;;;;;;;;;;;;18.13;33.07;100524.19;4940700;28;98670;-65
2023/06/16 05:31:17;;;;;;;;;;;;;;;18.17;33.30;100535.25;4944158;28;98387;-66
2023/06/16 05:33:43;;;;;;;;;;;;;;;18.18;33.46;100520.50;4929504;28;98344;-65
2023/06/16 05:36:09;;;;;;;;;;;;;;;18.22;33.34;100524.19;4951482;28;97991;-65
2023/06/16 05:38:36;;;;;;;;;;;;;;;18.33;33.42;100524.72;4948530;28;99153;-65
2023/06/16 05:41:02;;;;;;;;;;;;;;;18.50;33.47;100526.66;4925488;28;100186;-74
2023/06/16 05:43:28;;;;;;;;;;;;;;;18.52;33.49;100527.16;4928743;28;98301;-65
2023/06/16 05:45:55;;;;;;;;;;;;;;;18.56;33.37;100523.47;4947743;28;98247;-74
2023/06/16 05:48:22;;;;;;;;;;;;;;;18.57;33.60;100524.28;4948317;28;98335;-65
2023/06/16 05:50:49;;;;;;;;;;;;;;;18.59;33.62;100532.97;4939099;27;100395;-74
2023/06/16 05:53:15;;;;;;;;;;;;;;;18.69;33.56;100531.81;4964085;28;98073;-66
2023/06/16 05:55:42;;;;;;;;;;;;;;;19.28;33.11;100532.16;4950510;27;98750;-74
2023/06/16 05:58:09;;;;;;;;;;;;;;;19.49;33.20;100532.28;4940877;28;97978;-74
2023/06/16 06:00:35;;;;;;;;;;;;;;;19.65;33.07;100538.88;4933147;28;97973;-66
2023/06/16 06:03:02;;;;;;;;;;;;;;;19.74;33.05;100534.16;4960209;28;98042;-74
2023/06/16 06:05:28;;;;;;;;;;;;;;;19.75;33.14;100532.22;4947589;28;98393;-66
2023/06/16 06:07:55;;;;;;;;;;;;;;;19.72;33.34;100535.63;4927397;28;100446;-74
2023/06/16 06:10:22;;;;;;;;;;;;;;;19.65;33.47;100540.78;4922879;27;98157;-65
2023/06/16 06:12:48;;;;;;;;;;;;;;;19.55;33.42;100539.97;4939056;28;98001;-74
2023/06/16 06:15:17;;;;;;;;;;;;;;;19.55;33.70;100542.72;4962083;28;99614;-68
2023/06/16 06:17:44;;;;;;;;;;;;;;;19.74;33.41;100536.09;4947257;27;99803;-75
2023/06/16 06:20:11;;;;;;;;;;;;;;;19.97;33.34;100539.41;4926482;28;98732;-66
2023/06/16 06:22:38;;;;;;;;;;;;;;;20.04;33.28;100539.66;4947664;27;98248;-74
2023/06/16 06:25:04;;;;;;;;;;;;;;;20.15;33.11;100540.09;4962207;28;98414;-74
2023/06/16 06:27:31;;;;;;;;;;;;;;;20.21;33.23;100541.53;4965489;28;98220;-65
2023/06/16 06:29:57;;;;;;;;;;;;;;;20.25;33.25;100540.53;4947456;27;99949;-65
2023/06/16 06:32:23;;;;;;;;;;;;;;;20.40;33.29;100546.59;4946323;28;98579;-74
2023/06/16 06:34:50;;;;;;;;;;;;;;;;;;4929466;28;98126;-65
2023/06/16 06:37:18;;;;;;;;;;;;;;;20.70;33.11;100547.38;4964192;28;98417;-74
2023/06/16 06:39:45;;;;;;;;;;;;;;;20.99;32.77;100549.25;4950533;28;98025;-69
2023/06/16 06:42:12;;;;;;;;;;;;;;;21.26;32.79;100553.34;4940851;28;98393;-74
2023/06/16 06:44:39;;;;;;;;;;;;;;;21.46;32.60;100551.75;4947604;28;97992;-74
2023/06/16 06:47:05;;;;;;;;;;;;;;;21.72;32.40;100554.19;4950129;28;98123;-74
2023/06/16 06:49:31;;;;;;;;;;;;;;;21.76;32.72;100549.63;4931263;28;98980;-74
2023/06/16 06:51:57;;;;;;;;;;;;;;;23.34;31.52;100552.50;4946578;27;98270;-65
2023/06/16 06:54:23;;;;;;;;;;;;;;;24.30;31.05;100537.66;4929967;28;98133;-65
2023/06/16 06:56:50;;;;;;;;;;;;;;;24.91;30.83;100548.88;4928333;27;98183;-65
2023/06/16 06:59:16;;;;;;;;;;;;;;;26.11;30.21;100548.75;4948039;28;98215;-74
2023/06/16 07:01:43;;;;;;;;;;;;;;;27.24;29.72;100556.25;4928565;28;98029;-65
2023/06/16 07:04:09;;;;;;;;;;;;;;;28.02;29.43;100553.47;4946147;28;98020;-74
2023/06/16 07:06:36;;;;;;;;;;;;;;;28.70;29.51;100567.78;4942571;28;97889;-65
2023/06/16 07:09:02;;;;;;;;;;;;;;;28.53;29.77;100563.75;4906462;28;98335;-66
2023/06/16 07:11:31;;;;;;;;;;;;;;;27.92;30.62;100559.69;4903244;28;98448;-74
2023/06/16 07:14:01;;;;;;;;;;;;;;;28.48;30.43;100558.53;4925559;28;98168;-74
2023/06/16 07:16:28;;;;;;;;;;;;;;;29.13;29.91;100554.13;4928301;28;98673;-73
2023/06/16 07:18:54;;;;;;;;;;;;;;;28.10;30.86;100560.66;4899426;28;98288;-74
2023/06/16 07:21:21;;;;;;;;;;;;;;;27.50;31.44;100560.06;4905717;28;98613;-66
2023/06/16 07:23:47;;;;;;;;;;;;;;;27.13;31.57;100558.88;4927846;28;98247;-73
2023/06/16 07:26:13;;;;;;;;;;;;;;;27.00;31.84;100556.72;4936859;28;119683;-74
2023/06/16 07:28:42;;;;;;;;;;;;;;;27.35;31.25;100553.59;4920510;28;98244;-74
2023/06/16 07:31:09;;;;;;;;;;;;;;;27.75;30.97;100552.06;4937788;28;98526;-66
2023/06/16 07:33:36;;;;;;;;;;;;;;;27.73;31.30;100552.38;4927307;28;100700;-66
2023/06/16 07:36:03;;;;;;;;;;;;;;;27.52;31.25;100552.97;4925163;28;98400;-74
2023/06/16 07:38:30;;;;;;;;;;;;;;;27.41;31.54;100554.84;4944442;28;97978;-66
2023/06/16 07:40:57;;;;;;;;;;;;;;;27.21;31.66;100547.91;4911222;28;98225;-66
2023/06/16 07:43:24;;;;;;;;;;;;;;;27.29;31.47;100552.34;4912710;28;98440;-66
2023/06/16 07:45:51;;;;;;;;;;;;;;;27.19;31.51;100550.25;4930234;28;98062;-66
2023/06/16 07:48:18;;;;;;;;;;;;;;;27.03;31.85;100550.44;4917299;28;97959;-74
2023/06/16 07:50:45;;;;;;;;;;;;;;;26.81;31.90;100552.94;4914283;28;98390;-66
2023/06/16 07:53:11;;;;;;;;;;;;;;;26.76;31.90;100550.50;4916885;28;98463;-66
2023/06/16 07:55:38;;;;;;;;;;;;;;;27.27;31.54;100551.91;4926669;28;97818;-66
2023/06/16 07:58:04;;;;;;;;;;;;;;;28.49;30.48;100546.28;4927912;28;97970;-74
2023/06/16 08:00:30;;;;;;;;;;;;;;;28.00;31.10;100552.25;4930104;28;98695;-74
2023/06/16 08:02:57;;;;;;;;;;;;;;;27.76;31.37;100550.88;4928015;28;98187;-74
2023/06/16 08:05:23;;;;;;;;;;;;;;;27.47;31.72;100550.56;4932298;28;98372;-74
2023/06/16 08:07:50;;;;;;;;;;;;;;;27.14;31.94;100548.63;4933006;28;98165;-66
2023/06/16 08:10:19;;;;;;;;;;;;;;;26.76;32.38;100541.41;4930616;28;98484;-74
2023/06/16 08:12:49;;;;;;;;;;;;;;;26.40;32.53;100543.66;4913768;28;98241;-66
2023/06/16 08:15:16;;;;;;;;;;;;;;;26.12;32.69;100544.03;4914529;28;98278;-73
2023/06/16 08:17:43;;;;;;;;;;;;;;;26.03;32.58;100549.00;4928872;28;98209;-75
2023/06/16 08:20:12;;;;;;;;;;;;;;;26.19;32.35;100555.97;4920247;28;97908;-82
2023/06/16 08:22:42;;;;;;;;;;;;;;;26.30;32.45;100558.91;4917154;28;97898;-77
2023/06/16 08:25:09;;;;;;;;;;;;;;;26.52;32.01;100545.41;4909592;28;98633;-79
2023/06/16 08:27:37;;;;;;;;;;;;;;;26.55;32.30;100552.97;4929837;28;98300;-82
2023/06/16 08:30:04;;;;;;;;;;;;;;;26.39;32.16;100551.16;4912375;28;98007;-81
2023/06/16 08:32:34;;;;;;;;;;;;;;;26.18;32.56;100546.09;4931620;28;98460;-76
2023/06/16 08:35:02;;;;;;;;;;;;;;;25.88;32.68;100553.50;4911406;28;99903;-76
2023/06/16 08:37:29;;;;;;;;;;;;;;;25.51;33.09;100558.75;4908369;28;99045;-78
2023/06/16 08:39:58;;;;;;;;;;;;;;;25.26;33.14;100553.53;4906928;28;98267;-76
2023/06/16 08:42:26;;;;;;;;;;;;;;;25.34;32.64;100547.00;4921601;28;97935;-79
2023/06/16 08:44:55;;;;;;;;;;;;;;;25.41;32.59;100551.84;4911494;28;100648;-76
2023/06/16 08:47:23;;;;;;;;;;;;;;;25.16;32.72;100556.91;4913427;28;98971;-75
2023/06/16 08:49:54;;;;;;;;;;;;;;;24.84;32.96;100554.25;4928088;28;98539;-75
2023/06/16 08:52:21;;;;;;;;;;;;;;;24.35;33.61;100562.97;4929868;28;97983;-76
2023/06/16 08:54:48;;;;;;;;;;;;;;;23.88;33.72;100572.06;4904663;28;98415;-76
2023/06/16 08:57:15;;;;;;;;;;;;;;;23.44;33.94;100572.06;4906702;28;98643;-77
2023/06/16 08:59:43;;;;;;;;;;;;;;;23.09;34.24;100577.38;4926946;28;97919;-77
2023/06/16 09:02:10;;;;;;;;;;;;;;;22.77;34.29;100579.94;4927081;28;98146;-76
2023/06/16 09:04:38;;;;;;;;;;;;;;;22.46;34.49;100577.81;4928724;28;98557;-75
2023/06/16 09:07:05;;;;;;;;;;;;;;;22.21;34.52;100581.72;4930897;28;98004;-78
2023/06/16 09:09:33;;;;;;;;;;;;;;;21.95;34.51;100588.28;4940185;28;98195;-76
2023/06/16 09:12:07;;;;;;;;;;;;;;;21.72;34.79;100584.34;4933718;28;98222;-77
2023/06/16 09:14:41;;;;;;;;;;;;;;;21.51;34.69;100582.47;4922303;28;98520;-76
2023/06/16 09:17:09;;;;;;;;;;;;;;;21.38;34.79;100583.59;4944512;28;98300;-76
2023/06/16 09:19:47;;;;;;;;;;;;;;;21.36;34.58;100585.84;4949284;28;98172;-78
2023/06/16 09:22:22;;;;;;;;;;;;;;;21.40;34.51;100584.03;4928749;28;98497;-77
2023/06/16 09:24:59;;;;;;;;;;;;;;;21.44;34.30;100582.22;4940184;28;98218;-76
2023/06/16 09:27:47;;;;;;;;;;;;;;;21.48;34.25;100582.34;4943252;28;98007;-76
2023/06/16 09:30:19;;;;;;;;;;;;;;;21.49;34.27;100583.94;4938446;28;98105;-76
2023/06/16 09:32:47;;;;;;;;;;;;;;;21.58;34.15;100578.41;4947870;28;97898;-76
2023/06/16 09:35:27;;;;;;;;;;;;;;;21.87;33.84;100571.94;4933081;28;100613;-77
2023/06/16 09:38:00;;;;;;;;;;;;;;;22.87;33.03;100566.84;4962288;28;98598;-76
2023/06/16 09:40:30;;;;;;;;;;;;;;;23.66;32.22;100575.44;4928853;28;98956;-76
2023/06/16 09:42:59;;;;;;;;;;;;;;;24.39;31.87;100569.38;4945501;28;98304;-75
2023/06/16 09:45:31;;;;;;;;;;;;;;;25.25;31.52;100562.97;4920871;28;98309;-79
2023/06/16 09:48:03;;;;;;;;;;;;;;;25.27;31.78;100568.13;4949115;28;97914;-76
2023/06/16 09:50:31;;;;;;;;;;;;;;;25.28;31.79;100555.94;4941363;28;98025;-74
2023/06/16 09:53:01;;;;;;;;;;;;;;;24.78;32.42;100563.94;4959545;28;98448;-76
2023/06/16 09:55:28;;;;;;;;;;;;;;;24.20;33.05;100564.56;4942433;28;98315;-76
2023/06/16 09:57:55;;;;;;;;;;;;;;;23.67;33.39;100569.56;4946405;28;98091;-76
2023/06/16 10:00:22;;;;;;;;;;;;;;;23.19;33.85;100568.63;4956736;28;98202;-72
2023/06/16 10:02:49;;;;;;;;;;;;;;;22.76;34.14;100578.34;4949837;28;100127;-77
2023/06/16 10:05:18;;;;;;;;;;;;;;;22.39;34.23;100587.78;4930378;28;98241;-72
2023/06/16 10:07:48;;;;;;;;;;;;;;;22.04;34.40;100582.69;4929660;28;100104;-71
2023/06/16 10:10:15;;;;;;;;;;;;;;;21.72;34.60;100585.16;4920795;28;98178;-72
2023/06/16 10:12:48;;;;;;;;;;;;;;;21.43;34.64;100588.84;4938292;28;98358;-77
2023/06/16 10:15:20;;;;;;;;;;;;;;;21.17;34.81;100593.72;4919807;28;98228;-72
2023/06/16 10:17:46;;;;;;;;;;;;;;;20.94;34.78;100596.81;4928996;28;98604;-72
2023/06/16 10:20:14;;;;;;;;;;;;;;;20.75;34.92;100597.28;4958008;28;98509;-72
2023/06/16 10:22:41;;;;;;;;;;;;;;;20.62;34.85;100592.03;4939847;28;98156;-77
2023/06/16 10:25:09;;;;;;;;;;;;;;;20.50;34.81;100595.50;4918795;28;98360;-76
2023/06/16 10:27:35;;;;;;;;;;;;;;;20.41;34.76;100597.44;4922658;28;98140;-71
2023/06/16 10:30:02;;;;;;;;;;;;;;;20.34;34.96;100598.75;4925648;28;98268;-76
2023/06/16 10:32:30;;;;;;;;;;;;;;;20.32;34.73;100597.50;4928304;28;98624;-76
2023/06/16 10:35:00;;;;;;;;;;;;;;;20.32;34.71;100592.81;4930455;28;98200;-76
2023/06/16 10:37:28;;;;;;;;;;;;;;;20.37;34.87;100594.56;4939765;28;99662;-70
2023/06/16 10:39:57;;;;;;;;;;;;;;;20.41;34.63;100592.78;4926181;28;98511;-76
2023/06/16 10:42:24;;;;;;;;;;;;;;;20.48;34.43;100592.25;4942997;28;98585;-75
2023/06/16 10:44:52;;;;;;;;;;;;;;;20.58;34.46;100594.63;4958359;28;98147;-76
2023/06/16 10:47:18;;;;;;;;;;;;;;;20.64;34.43;100592.53;4928085;28;98260;-76
2023/06/16 10:50:10;;;;;;;;;;;;;;;20.70;34.36;100591.97;4953129;28;100217;-69
2023/06/16 10:52:42;;;;;;;;;;;;;;;20.77;34.27;100591.47;4935993;28;98172;-69
2023/06/16 10:55:34;;;;;;;;;;;;;;;20.84;34.27;100589.78;4952353;28;99526;-76
2023/06/16 10:58:21;;;;;;;;;;;;;;;20.96;34.16;100589.06;4953463;28;99010;-69
2023/06/16 11:00:58;;;;;;;;;;;;;;;21.20;34.01;100587.59;4927445;28;98068;-69
2023/06/16 11:03:37;;;;;;;;;;;;;;;21.43;33.81;100590.78;4929077;28;98113;-69
2023/06/16 11:06:05;;;;;;;;;;;;;;;21.67;33.65;100579.91;4935914;28;100038;-76
2023/06/16 11:08:47;;;;;;;;;;;;;;;21.91;33.60;100575.59;4936630;28;98241;-68
2023/06/16 11:11:14;;;;;;;;;;;;;;;22.02;33.63;100583.03;4929099;28;98284;-68
2023/06/16 11:13:41;;;;;;;;;;;;;;;21.71;34.05;100591.00;4942488;28;98080;-76
2023/06/16 11:16:09;;;;;;;;;;;;;;;21.27;34.33;100594.13;4958526;28;98463;-70
2023/06/16 11:18:36;;;;;;;;;;;;;;;21.04;34.51;100590.94;4927088;28;97984;-70
2023/06/16 11:21:04;;;;;;;;;;;;;;;20.94;34.66;100591.31;4940822;28;98356;-71
2023/06/16 11:23:31;;;;;;;;;;;;;;;20.93;34.52;100591.66;4925597;28;98382;-75
2023/06/16 11:26:08;;;;;;;;;;;;;;;20.98;34.48;100592.25;4942735;28;98040;-70
2023/06/16 11:28:36;;;;;;;;;;;;;;;21.14;34.16;100584.22;4924224;28;98421;-75
2023/06/16 11:31:05;;;;;;;;;;;;;;;21.32;34.18;100585.72;4944101;28;98111;-76
2023/06/16 11:33:33;;;;;;;;;;;;;;;21.54;34.04;100581.00;4943559;28;98141;-75
2023/06/16 11:36:16;;;;;;;;;;;;;;;21.69;33.97;100576.81;4934120;28;98061;-70
2023/06/16 11:38:43;;;;;;;;;;;;;;;21.86;33.83;100582.13;4941368;28;98288;-75
2023/06/16 11:41:19;;;;;;;;;;;;;;;22.34;33.40;100571.53;4933068;28;97977;-75
2023/06/16 11:43:46;;;;;;;;;;;;;;;22.41;33.56;100583.53;4942055;28;98170;-75
2023/06/16 11:46:13;;;;;;;;;;;;;;;22.14;33.92;100585.03;4928340;28;98183;-69
2023/06/16 11:48:39;;;;;;;;;;;;;;;21.90;34.16;100583.03;4932642;28;98063;-70
2023/06/16 11:51:05;;;;;;;;;;;;;;;21.62;34.38;100582.06;4919072;28;99380;-69
2023/06/16 11:53:33;;;;;;;;;;;;;;;21.35;34.70;100589.75;4943708;28;98340;-75
2023/06/16 11:56:00;;;;;;;;;;;;;;;21.36;34.63;100582.31;4931837;28;98464;-69
2023/06/16 11:58:28;;;;;;;;;;;;;;;21.28;34.61;100583.97;4946599;28;98655;-75
2023/06/16 12:00:59;;;;;;;;;;;;;;;21.19;34.58;100586.78;4925149;28;100735;-74
2023/06/16 12:03:27;;;;;;;;;;;;;;;21.14;34.64;100586.19;4927720;28;98105;-74
2023/06/16 12:05:54;;;;;;;;;;;;;;;21.20;34.57;100585.63;4922812;28;98192;-74
2023/06/16 12:08:43;;;;;;;;;;;;;;;21.21;34.65;100589.19;4946677;28;98191;-69
2023/06/16 12:11:13;;;;;;;;;;;;;;;21.38;34.36;100593.72;4945130;28;99706;-68
2023/06/16 12:13:39;;;;;;;;;;;;;;;21.25;34.63;100584.63;4945506;28;98187;-68
2023/06/16 12:16:07;;;;;;;;;;;;;;;21.03;34.81;100591.28;4945233;28;99902;-73
2023/06/16 12:18:34;;;;;;;;;;;;;;;20.86;35.05;100580.44;4946273;28;98603;-68
2023/06/16 12:21:22;;;;;;;;;;;;;;;20.77;34.93;100589.53;4944925;28;97995;-68
2023/06/16 12:23:58;;;;;;;;;;;;;;;20.87;34.76;100584.78;4940449;28;98242;-73
2023/06/16 12:26:29;;;;;;;;;;;;;;;20.93;34.75;100587.00;4929415;28;99832;-69
2023/06/16 12:28:56;;;;;;;;;;;;;;;20.95;34.70;100587.47;4928283;28;98261;-69
2023/06/16 12:31:26;;;;;;;;;;;;;;;20.92;34.89;100582.66;4927103;28;98038;-69
2023/06/16 12:33:53;;;;;;;;;;;;;;;20.89;34.82;100590.72;4930923;28;98021;-74
2023/06/16 12:36:20;;;;;;;;;;;;;;;20.87;34.86;100582.03;4929120;28;98032;-74
2023/06/16 12:38:46;;;;;;;;;;;;;;;20.85;34.80;100590.59;4929905;28;98514;-68
2023/06/16 12:41:16;;;;;;;;;;;;;;;20.83;34.87;100587.41;4927822;28;98365;-68
2023/06/16 12:43:47;;;;;;;;;;;;;;;20.83;34.80;100590.94;4927175;28;98082;-74